sensor_id;sensor_type;location;lat;lon;timestamp;pressure;altitude;pressure_sealevel;temperature;humidity
3096;BME280;1558;42.700;23.360;2024-02-26T00:01:23;94888.16;;;7.96;100.00
3096;BME280;1558;42.700;23.360;2024-02-26T00:03:53;94881.84;;;8.01;100.00
3096;BME280;1558;42.700;23.360;2024-02-26T00:06:21;94880.88;;;7.97;100.00
3096;BME280;1558;42.700;23.360;2024-02-26T00:08:50;94871.75;;;7.89;100.00
3096;BME280;1558;42.700;23.360;2024-02-26T00:11:18;94874.00;;;7.87;100.00
3096;BME280;1558;42.700;23.360;2024-02-26T00:13:46;94857.50;;;7.77;100.00
3096;BME280;1558;42.700;23.360;2024-02-26T00:16:14;94865.81;;;7.84;100.00
3096;BME280;1558;42.700;23.360;2024-02-26T00:18:42;94874.38;;;7.77;100.00
3096;BME280;1558;42.700;23.360;2024-02-26T00:21:15;94881.19;;;7.75;100.00
3096;BME280;1558;42.700;23.360;2024-02-26T00:23:44;94880.50;;;7.78;100.00
3096;BME280;1558;42.700;23.360;2024-02-26T00:26:12;94868.13;;;7.94;100.00
3096;BME280;1558;42.700;23.360;2024-02-26T00:28:41;94869.09;;;7.89;100.00
3096;BME280;1558;42.700;23.360;2024-02-26T00:31:10;94861.53;;;7.83;100.00
3096;BME280;1558;42.700;23.360;2024-02-26T00:33:38;94862.69;;;7.73;100.00
3096;BME280;1558;42.700;23.360;2024-02-26T00:36:06;94857.50;;;7.77;100.00
3096;BME280;1558;42.700;23.360;2024-02-26T00:38:37;94855.72;;;7.81;100.00
3096;BME280;1558;42.700;23.360;2024-02-26T00:41:06;94844.38;;;7.75;100.00
3096;BME280;1558;42.700;23.360;2024-02-26T00:43:34;94851.16;;;7.73;100.00
3096;BME280;1558;42.700;23.360;2024-02-26T00:46:02;94851.00;;;7.78;100.00
3096;BME280;1558;42.700;23.360;2024-02-26T00:48:30;94842.94;;;7.78;100.00
3096;BME280;1558;42.700;23.360;2024-02-26T00:50:59;94829.13;;;7.67;100.00
3096;BME280;1558;42.700;23.360;2024-02-26T00:53:27;94843.88;;;7.82;100.00
3096;BME280;1558;42.700;23.360;2024-02-26T00:55:57;94834.06;;;7.86;100.00
3096;BME280;1558;42.700;23.360;2024-02-26T00:58:26;94831.50;;;7.89;100.00
3096;BME280;1558;42.700;23.360;2024-02-26T01:00:55;94837.19;;;7.88;100.00
3096;BME280;1558;42.700;23.360;2024-02-26T01:03:23;94824.13;;;7.86;100.00
3096;BME280;1558;42.700;23.360;2024-02-26T01:05:51;94827.53;;;7.95;100.00
3096;BME280;1558;42.700;23.360;2024-02-26T01:08:24;94827.25;;;7.88;100.00
3096;BME280;1558;42.700;23.360;2024-02-26T01:10:52;94836.03;;;7.97;100.00
3096;BME280;1558;42.700;23.360;2024-02-26T01:13:22;94787.44;;;7.70;100.00
3096;BME280;1558;42.700;23.360;2024-02-26T01:15:50;94825.28;;;7.97;100.00
3096;BME280;1558;42.700;23.360;2024-02-26T01:18:18;94835.06;;;8.02;100.00
3096;BME280;1558;42.700;23.360;2024-02-26T01:20:46;94834.72;;;8.03;100.00
3096;BME280;1558;42.700;23.360;2024-02-26T01:23:15;94818.03;;;7.98;100.00
3096;BME280;1558;42.700;23.360;2024-02-26T01:25:43;94829.06;;;7.96;100.00
3096;BME280;1558;42.700;23.360;2024-02-26T01:28:11;94835.44;;;7.92;100.00
3096;BME280;1558;42.700;23.360;2024-02-26T01:30:41;94826.91;;;7.90;100.00
3096;BME280;1558;42.700;23.360;2024-02-26T01:33:09;94826.00;;;7.86;100.00
3096;BME280;1558;42.700;23.360;2024-02-26T01:35:37;94826.34;;;7.84;100.00
3096;BME280;1558;42.700;23.360;2024-02-26T01:38:05;94819.72;;;7.82;100.00
3096;BME280;1558;42.700;23.360;2024-02-26T01:40:33;94823.50;;;7.81;100.00
3096;BME280;1558;42.700;23.360;2024-02-26T01:43:03;94819.44;;;7.75;100.00
3096;BME280;1558;42.700;23.360;2024-02-26T01:45:31;94813.69;;;7.85;100.00
3096;BME280;1558;42.700;23.360;2024-02-26T01:48:01;94818.13;;;7.81;100.00
3096;BME280;1558;42.700;23.360;2024-02-26T01:50:29;94808.38;;;7.76;100.00
3096;BME280;1558;42.700;23.360;2024-02-26T01:52:58;94807.66;;;7.88;100.00
3096;BME280;1558;42.700;23.360;2024-02-26T01:55:27;94812.84;;;7.93;100.00
3096;BME280;1558;42.700;23.360;2024-02-26T01:57:55;94813.81;;;7.88;100.00
3096;BME280;1558;42.700;23.360;2024-02-26T02:00:24;94807.22;;;7.86;100.00
3096;BME280;1558;42.700;23.360;2024-02-26T02:02:53;94807.22;;;7.86;100.00
3096;BME280;1558;42.700;23.360;2024-02-26T02:05:24;94799.50;;;7.84;100.00
3096;BME280;1558;42.700;23.360;2024-02-26T02:07:53;94786.91;;;7.76;100.00
3096;BME280;1558;42.700;23.360;2024-02-26T02:10:22;94810.09;;;7.81;100.00
3096;BME280;1558;42.700;23.360;2024-02-26T02:12:52;94806.28;;;7.82;100.00
3096;BME280;1558;42.700;23.360;2024-02-26T02:15:20;94800.44;;;7.80;100.00
3096;BME280;1558;42.700;23.360;2024-02-26T02:17:49;94797.13;;;7.83;100.00
3096;BME280;1558;42.700;23.360;2024-02-26T02:20:17;94796.47;;;7.86;100.00
3096;BME280;1558;42.700;23.360;2024-02-26T02:22:47;94790.47;;;7.89;100.00
3096;BME280;1558;42.700;23.360;2024-02-26T02:25:15;94801.72;;;8.03;100.00
3096;BME280;1558;42.700;23.360;2024-02-26T02:27:43;94797.91;;;8.04;100.00
3096;BME280;1558;42.700;23.360;2024-02-26T02:30:12;94803.97;;;8.01;100.00
3096;BME280;1558;42.700;23.360;2024-02-26T02:32:42;94807.75;;;8.00;100.00
3096;BME280;1558;42.700;23.360;2024-02-26T02:35:10;94805.78;;;8.09;100.00
3096;BME280;1558;42.700;23.360;2024-02-26T02:37:39;94802.91;;;8.14;100.00
3096;BME280;1558;42.700;23.360;2024-02-26T02:40:09;94807.63;;;8.17;100.00
3096;BME280;1558;42.700;23.360;2024-02-26T02:42:37;94805.59;;;8.14;100.00
3096;BME280;1558;42.700;23.360;2024-02-26T02:45:06;94809.84;;;8.15;100.00
3096;BME280;1558;42.700;23.360;2024-02-26T02:47:36;94805.69;;;8.26;100.00
3096;BME280;1558;42.700;23.360;2024-02-26T02:50:05;94805.16;;;8.33;100.00
3096;BME280;1558;42.700;23.360;2024-02-26T02:52:33;94815.34;;;8.39;100.00
3096;BME280;1558;42.700;23.360;2024-02-26T02:55:01;94814.19;;;8.28;100.00
3096;BME280;1558;42.700;23.360;2024-02-26T02:57:32;94815.50;;;8.22;100.00
3096;BME280;1558;42.700;23.360;2024-02-26T03:00:01;94808.16;;;8.10;100.00
3096;BME280;1558;42.700;23.360;2024-02-26T03:02:30;94811.53;;;7.99;100.00
3096;BME280;1558;42.700;23.360;2024-02-26T03:04:58;94788.78;;;7.76;100.00
3096;BME280;1558;42.700;23.360;2024-02-26T03:07:27;94820.72;;;7.98;100.00
3096;BME280;1558;42.700;23.360;2024-02-26T03:09:55;94823.25;;;7.94;100.00
3096;BME280;1558;42.700;23.360;2024-02-26T03:12:23;94818.69;;;7.95;100.00
3096;BME280;1558;42.700;23.360;2024-02-26T03:14:53;94832.03;;;8.03;100.00
3096;BME280;1558;42.700;23.360;2024-02-26T03:17:22;94830.47;;;8.02;100.00
3096;BME280;1558;42.700;23.360;2024-02-26T03:19:51;94814.22;;;7.99;100.00
3096;BME280;1558;42.700;23.360;2024-02-26T03:22:21;94812.47;;;8.03;100.00
3096;BME280;1558;42.700;23.360;2024-02-26T03:24:49;94811.47;;;8.07;100.00
3096;BME280;1558;42.700;23.360;2024-02-26T03:27:17;94816.97;;;8.11;100.00
3096;BME280;1558;42.700;23.360;2024-02-26T03:29:45;94805.31;;;8.07;100.00
3096;BME280;1558;42.700;23.360;2024-02-26T03:32:16;94804.00;;;8.13;100.00
3096;BME280;1558;42.700;23.360;2024-02-26T03:34:44;94801.59;;;8.20;100.00
3096;BME280;1558;42.700;23.360;2024-02-26T03:37:12;94797.00;;;8.20;100.00
3096;BME280;1558;42.700;23.360;2024-02-26T03:39:41;94749.69;;;7.87;100.00
3096;BME280;1558;42.700;23.360;2024-02-26T03:42:10;94797.97;;;8.16;100.00
3096;BME280;1558;42.700;23.360;2024-02-26T03:44:38;94798.97;;;8.11;100.00
3096;BME280;1558;42.700;23.360;2024-02-26T03:47:06;94802.81;;;8.02;100.00
3096;BME280;1558;42.700;23.360;2024-02-26T03:49:36;94790.03;;;7.99;100.00
3096;BME280;1558;42.700;23.360;2024-02-26T03:52:04;94800.94;;;8.02;100.00
3096;BME280;1558;42.700;23.360;2024-02-26T03:54:33;94794.91;;;8.05;100.00
3096;BME280;1558;42.700;23.360;2024-02-26T03:57:02;94785.16;;;8.01;100.00
3096;BME280;1558;42.700;23.360;2024-02-26T03:59:30;94786.88;;;8.05;100.00
3096;BME280;1558;42.700;23.360;2024-02-26T04:01:58;94795.69;;;8.06;100.00
3096;BME280;1558;42.700;23.360;2024-02-26T04:04:28;94797.19;;;7.95;100.00
3096;BME280;1558;42.700;23.360;2024-02-26T04:06:58;94794.50;;;7.95;100.00
3096;BME280;1558;42.700;23.360;2024-02-26T04:09:26;94789.78;;;7.92;100.00
3096;BME280;1558;42.700;23.360;2024-02-26T04:11:54;94785.28;;;7.84;100.00
3096;BME280;1558;42.700;23.360;2024-02-26T04:14:23;94788.34;;;7.74;100.00
3096;BME280;1558;42.700;23.360;2024-02-26T04:16:51;94783.03;;;7.65;100.00
3096;BME280;1558;42.700;23.360;2024-02-26T04:19:21;94777.69;;;7.57;100.00
3096;BME280;1558;42.700;23.360;2024-02-26T04:21:49;94782.69;;;7.67;100.00
3096;BME280;1558;42.700;23.360;2024-02-26T04:24:19;94773.66;;;7.71;100.00
3096;BME280;1558;42.700;23.360;2024-02-26T04:26:47;94784.28;;;7.68;100.00
3096;BME280;1558;42.700;23.360;2024-02-26T04:29:16;94776.41;;;7.63;100.00
3096;BME280;1558;42.700;23.360;2024-02-26T04:31:44;94772.78;;;7.59;100.00
3096;BME280;1558;42.700;23.360;2024-02-26T04:34:14;94762.75;;;7.47;100.00
3096;BME280;1558;42.700;23.360;2024-02-26T04:36:42;94766.13;;;7.44;100.00
3096;BME280;1558;42.700;23.360;2024-02-26T04:39:11;94778.91;;;7.38;100.00
3096;BME280;1558;42.700;23.360;2024-02-26T04:41:42;94782.41;;;7.30;100.00
3096;BME280;1558;42.700;23.360;2024-02-26T04:44:10;94783.84;;;7.28;100.00
3096;BME280;1558;42.700;23.360;2024-02-26T04:46:38;94789.81;;;7.33;100.00
3096;BME280;1558;42.700;23.360;2024-02-26T04:49:06;94797.44;;;7.23;100.00
3096;BME280;1558;42.700;23.360;2024-02-26T04:51:35;94793.03;;;7.18;100.00
3096;BME280;1558;42.700;23.360;2024-02-26T04:54:03;94786.25;;;7.21;100.00
3096;BME280;1558;42.700;23.360;2024-02-26T04:56:32;94792.75;;;7.11;100.00
3096;BME280;1558;42.700;23.360;2024-02-26T04:59:02;94800.34;;;7.09;100.00
3096;BME280;1558;42.700;23.360;2024-02-26T05:01:30;94796.28;;;7.03;100.00
3096;BME280;1558;42.700;23.360;2024-02-26T05:03:58;94784.88;;;7.06;100.00
3096;BME280;1558;42.700;23.360;2024-02-26T05:06:27;94761.81;;;6.85;100.00
3096;BME280;1558;42.700;23.360;2024-02-26T05:08:55;94806.16;;;7.11;100.00
3096;BME280;1558;42.700;23.360;2024-02-26T05:11:23;94795.25;;;7.16;100.00
3096;BME280;1558;42.700;23.360;2024-02-26T05:13:51;94803.03;;;7.09;100.00
3096;BME280;1558;42.700;23.360;2024-02-26T05:16:21;94805.41;;;7.02;100.00
3096;BME280;1558;42.700;23.360;2024-02-26T05:18:51;94828.13;;;7.05;100.00
3096;BME280;1558;42.700;23.360;2024-02-26T05:21:20;94825.13;;;6.98;100.00
3096;BME280;1558;42.700;23.360;2024-02-26T05:23:48;94835.53;;;6.99;100.00
3096;BME280;1558;42.700;23.360;2024-02-26T05:26:20;94825.47;;;6.96;100.00
3096;BME280;1558;42.700;23.360;2024-02-26T05:28:49;94832.09;;;6.99;100.00
3096;BME280;1558;42.700;23.360;2024-02-26T05:31:18;94826.44;;;6.92;100.00
3096;BME280;1558;42.700;23.360;2024-02-26T05:33:48;94838.03;;;7.04;100.00
3096;BME280;1558;42.700;23.360;2024-02-26T05:36:19;94832.81;;;7.16;100.00
3096;BME280;1558;42.700;23.360;2024-02-26T05:38:49;94837.66;;;7.23;100.00
3096;BME280;1558;42.700;23.360;2024-02-26T05:41:18;94849.47;;;7.30;100.00
3096;BME280;1558;42.700;23.360;2024-02-26T05:43:50;94843.59;;;7.37;100.00
3096;BME280;1558;42.700;23.360;2024-02-26T05:46:18;94844.56;;;7.41;100.00
3096;BME280;1558;42.700;23.360;2024-02-26T05:48:49;94797.63;;;7.18;100.00
3096;BME280;1558;42.700;23.360;2024-02-26T05:51:18;94851.91;;;7.53;100.00
3096;BME280;1558;42.700;23.360;2024-02-26T05:53:47;94851.09;;;7.61;100.00
3096;BME280;1558;42.700;23.360;2024-02-26T05:56:21;94843.63;;;7.66;100.00
3096;BME280;1558;42.700;23.360;2024-02-26T05:58:50;94840.72;;;7.80;100.00
3096;BME280;1558;42.700;23.360;2024-02-26T06:01:19;94837.38;;;7.83;100.00
3096;BME280;1558;42.700;23.360;2024-02-26T06:03:49;94851.97;;;8.02;100.00
3096;BME280;1558;42.700;23.360;2024-02-26T06:06:18;94855.09;;;8.04;100.00
3096;BME280;1558;42.700;23.360;2024-02-26T06:08:46;94853.03;;;8.10;100.00
3096;BME280;1558;42.700;23.360;2024-02-26T06:11:14;94862.63;;;8.11;100.00
3096;BME280;1558;42.700;23.360;2024-02-26T06:13:43;94865.94;;;8.16;100.00
3096;BME280;1558;42.700;23.360;2024-02-26T06:16:11;94859.75;;;8.16;100.00
3096;BME280;1558;42.700;23.360;2024-02-26T06:18:39;94870.69;;;8.11;100.00
3096;BME280;1558;42.700;23.360;2024-02-26T06:21:10;94864.34;;;8.15;100.00
3096;BME280;1558;42.700;23.360;2024-02-26T06:23:38;94855.72;;;8.10;100.00
3096;BME280;1558;42.700;23.360;2024-02-26T06:26:07;94863.25;;;8.16;100.00
3096;BME280;1558;42.700;23.360;2024-02-26T06:28:35;94864.28;;;8.24;100.00
3096;BME280;1558;42.700;23.360;2024-02-26T06:31:07;94863.16;;;8.25;100.00
3096;BME280;1558;42.700;23.360;2024-02-26T06:33:35;94870.41;;;8.33;100.00
3096;BME280;1558;42.700;23.360;2024-02-26T06:36:04;94855.34;;;8.41;100.00
3096;BME280;1558;42.700;23.360;2024-02-26T06:38:33;94862.53;;;8.49;100.00
3096;BME280;1558;42.700;23.360;2024-02-26T06:41:02;94864.66;;;8.43;100.00
3096;BME280;1558;42.700;23.360;2024-02-26T06:43:30;94866.94;;;8.33;100.00
3096;BME280;1558;42.700;23.360;2024-02-26T06:45:58;94870.41;;;8.33;100.00
3096;BME280;1558;42.700;23.360;2024-02-26T06:48:26;94871.66;;;8.36;100.00
3096;BME280;1558;42.700;23.360;2024-02-26T06:50:55;94869.44;;;8.38;100.00
3096;BME280;1558;42.700;23.360;2024-02-26T06:53:23;94868.97;;;8.36;100.00
3096;BME280;1558;42.700;23.360;2024-02-26T06:55:54;94857.91;;;8.37;100.00
3096;BME280;1558;42.700;23.360;2024-02-26T06:58:22;94857.59;;;8.39;100.00
3096;BME280;1558;42.700;23.360;2024-02-26T07:00:50;94867.16;;;8.48;100.00
3096;BME280;1558;42.700;23.360;2024-02-26T07:03:18;94869.66;;;8.53;100.00
3096;BME280;1558;42.700;23.360;2024-02-26T07:05:46;94875.94;;;8.57;100.00
3096;BME280;1558;42.700;23.360;2024-02-26T07:08:15;94869.41;;;8.58;100.00
3096;BME280;1558;42.700;23.360;2024-02-26T07:10:43;94852.38;;;8.54;100.00
3096;BME280;1558;42.700;23.360;2024-02-26T07:13:13;94874.09;;;8.70;100.00
3096;BME280;1558;42.700;23.360;2024-02-26T07:15:41;94879.13;;;8.71;100.00
3096;BME280;1558;42.700;23.360;2024-02-26T07:18:09;94883.25;;;8.69;100.00
3096;BME280;1558;42.700;23.360;2024-02-26T07:20:37;94875.84;;;8.66;100.00
3096;BME280;1558;42.700;23.360;2024-02-26T07:23:06;94881.94;;;8.75;100.00
3096;BME280;1558;42.700;23.360;2024-02-26T07:25:34;94865.50;;;8.76;100.00
3096;BME280;1558;42.700;23.360;2024-02-26T07:28:03;94855.78;;;8.63;100.00
3096;BME280;1558;42.700;23.360;2024-02-26T07:30:32;94881.69;;;8.89;100.00
3096;BME280;1558;42.700;23.360;2024-02-26T07:33:01;94868.44;;;8.83;100.00
3096;BME280;1558;42.700;23.360;2024-02-26T07:35:31;94883.47;;;8.97;100.00
3096;BME280;1558;42.700;23.360;2024-02-26T07:38:00;94873.31;;;9.02;100.00
3096;BME280;1558;42.700;23.360;2024-02-26T07:40:28;94887.00;;;9.09;100.00
3096;BME280;1558;42.700;23.360;2024-02-26T07:42:56;94891.66;;;9.33;100.00
3096;BME280;1558;42.700;23.360;2024-02-26T07:45:24;94881.50;;;9.50;100.00
3096;BME280;1558;42.700;23.360;2024-02-26T07:47:54;94888.34;;;9.48;100.00
3096;BME280;1558;42.700;23.360;2024-02-26T07:50:22;94888.34;;;9.48;100.00
3096;BME280;1558;42.700;23.360;2024-02-26T07:52:50;94890.69;;;9.49;100.00
3096;BME280;1558;42.700;23.360;2024-02-26T07:55:20;94875.31;;;9.38;100.00
3096;BME280;1558;42.700;23.360;2024-02-26T07:57:49;94877.34;;;9.53;100.00
3096;BME280;1558;42.700;23.360;2024-02-26T08:00:17;94882.50;;;9.70;100.00
3096;BME280;1558;42.700;23.360;2024-02-26T08:02:46;94847.50;;;9.58;100.00
3096;BME280;1558;42.700;23.360;2024-02-26T08:05:15;94873.66;;;9.82;100.00
3096;BME280;1558;42.700;23.360;2024-02-26T08:07:43;94861.53;;;9.76;100.00
3096;BME280;1558;42.700;23.360;2024-02-26T08:10:11;94868.97;;;9.91;100.00
3096;BME280;1558;42.700;23.360;2024-02-26T08:12:41;94880.06;;;10.01;100.00
3096;BME280;1558;42.700;23.360;2024-02-26T08:15:09;94873.13;;;10.12;100.00
3096;BME280;1558;42.700;23.360;2024-02-26T08:17:38;94873.34;;;10.19;100.00
3096;BME280;1558;42.700;23.360;2024-02-26T08:20:07;94872.66;;;10.23;100.00
3096;BME280;1558;42.700;23.360;2024-02-26T08:22:37;94870.97;;;10.30;100.00
3096;BME280;1558;42.700;23.360;2024-02-26T08:25:06;94876.03;;;10.32;100.00
3096;BME280;1558;42.700;23.360;2024-02-26T08:27:36;94866.38;;;10.18;100.00
3096;BME280;1558;42.700;23.360;2024-02-26T08:30:05;94869.63;;;10.36;100.00
3096;BME280;1558;42.700;23.360;2024-02-26T08:32:34;94870.34;;;10.49;100.00
3096;BME280;1558;42.700;23.360;2024-02-26T08:35:02;94873.25;;;10.56;100.00
3096;BME280;1558;42.700;23.360;2024-02-26T08:37:31;94866.38;;;10.70;100.00
3096;BME280;1558;42.700;23.360;2024-02-26T08:40:00;94869.81;;;10.83;100.00
3096;BME280;1558;42.700;23.360;2024-02-26T08:42:33;94869.09;;;10.98;100.00
3096;BME280;1558;42.700;23.360;2024-02-26T08:45:02;94865.50;;;11.22;100.00
3096;BME280;1558;42.700;23.360;2024-02-26T08:47:30;94830.34;;;11.06;100.00
3096;BME280;1558;42.700;23.360;2024-02-26T08:49:59;94863.78;;;11.61;100.00
3096;BME280;1558;42.700;23.360;2024-02-26T08:52:27;94857.63;;;11.76;100.00
3096;BME280;1558;42.700;23.360;2024-02-26T08:54:55;94865.22;;;11.86;100.00
3096;BME280;1558;42.700;23.360;2024-02-26T08:57:25;94865.34;;;12.08;100.00
3096;BME280;1558;42.700;23.360;2024-02-26T08:59:54;94858.78;;;12.25;100.00
3096;BME280;1558;42.700;23.360;2024-02-26T09:02:22;94858.38;;;12.42;100.00
3096;BME280;1558;42.700;23.360;2024-02-26T09:04:50;94855.38;;;12.28;100.00
3096;BME280;1558;42.700;23.360;2024-02-26T09:07:21;94862.47;;;12.01;100.00
3096;BME280;1558;42.700;23.360;2024-02-26T09:09:49;94850.88;;;12.01;100.00
3096;BME280;1558;42.700;23.360;2024-02-26T09:12:17;94854.00;;;12.18;100.00
3096;BME280;1558;42.700;23.360;2024-02-26T09:14:48;94806.31;;;12.10;100.00
3096;BME280;1558;42.700;23.360;2024-02-26T09:17:16;94846.34;;;12.40;100.00
3096;BME280;1558;42.700;23.360;2024-02-26T09:19:44;94851.81;;;12.43;100.00
3096;BME280;1558;42.700;23.360;2024-02-26T09:22:12;94850.06;;;12.51;100.00
3096;BME280;1558;42.700;23.360;2024-02-26T09:24:44;94845.31;;;12.82;100.00
3096;BME280;1558;42.700;23.360;2024-02-26T09:27:12;94844.16;;;13.03;100.00
3096;BME280;1558;42.700;23.360;2024-02-26T09:29:41;94836.56;;;13.08;100.00
3096;BME280;1558;42.700;23.360;2024-02-26T09:32:10;94835.38;;;13.06;100.00
3096;BME280;1558;42.700;23.360;2024-02-26T09:34:40;94837.06;;;13.14;100.00
3096;BME280;1558;42.700;23.360;2024-02-26T09:37:08;94837.06;;;13.14;100.00
3096;BME280;1558;42.700;23.360;2024-02-26T09:39:47;94834.38;;;13.36;100.00
3096;BME280;1558;42.700;23.360;2024-02-26T09:42:18;94795.69;;;13.36;99.00
3096;BME280;1558;42.700;23.360;2024-02-26T09:44:48;94814.47;;;13.48;96.98
3096;BME280;1558;42.700;23.360;2024-02-26T09:47:21;94827.31;;;13.74;95.73
3096;BME280;1558;42.700;23.360;2024-02-26T09:49:52;94825.00;;;13.76;93.10
3096;BME280;1558;42.700;23.360;2024-02-26T09:52:21;94824.22;;;13.75;92.10
3096;BME280;1558;42.700;23.360;2024-02-26T09:54:53;94798.16;;;13.44;91.17
3096;BME280;1558;42.700;23.360;2024-02-26T09:57:21;94815.13;;;13.64;92.23
3096;BME280;1558;42.700;23.360;2024-02-26T09:59:53;94813.91;;;14.10;91.53
3096;BME280;1558;42.700;23.360;2024-02-26T10:02:23;94808.34;;;14.00;86.89
3096;BME280;1558;42.700;23.360;2024-02-26T10:04:52;94819.84;;;13.93;88.38
3096;BME280;1558;42.700;23.360;2024-02-26T10:07:23;94799.03;;;13.75;86.88
3096;BME280;1558;42.700;23.360;2024-02-26T10:09:51;94815.31;;;14.01;87.05
3096;BME280;1558;42.700;23.360;2024-02-26T10:12:19;94811.81;;;14.00;85.64
3096;BME280;1558;42.700;23.360;2024-02-26T10:14:48;94811.81;;;14.00;83.41
3096;BME280;1558;42.700;23.360;2024-02-26T10:17:16;94806.66;;;13.92;83.28
3096;BME280;1558;42.700;23.360;2024-02-26T10:19:46;94810.47;;;14.13;82.34
3096;BME280;1558;42.700;23.360;2024-02-26T10:22:14;94803.44;;;14.09;81.13
3096;BME280;1558;42.700;23.360;2024-02-26T10:24:42;94811.09;;;14.03;79.53
3096;BME280;1558;42.700;23.360;2024-02-26T10:27:11;94801.06;;;13.81;80.77
3096;BME280;1558;42.700;23.360;2024-02-26T10:29:39;94800.25;;;13.77;81.44
3096;BME280;1558;42.700;23.360;2024-02-26T10:32:09;94798.47;;;13.88;80.69
3096;BME280;1558;42.700;23.360;2024-02-26T10:34:40;94790.97;;;14.04;82.16
3096;BME280;1558;42.700;23.360;2024-02-26T10:37:10;94793.84;;;14.15;80.21
3096;BME280;1558;42.700;23.360;2024-02-26T10:39:39;94786.78;;;14.10;80.83
3096;BME280;1558;42.700;23.360;2024-02-26T10:42:14;94789.09;;;14.08;79.59
3096;BME280;1558;42.700;23.360;2024-02-26T10:44:44;94798.94;;;13.94;78.64
3096;BME280;1558;42.700;23.360;2024-02-26T10:47:16;94784.81;;;13.81;78.96
3096;BME280;1558;42.700;23.360;2024-02-26T10:49:47;94775.72;;;13.93;79.52
3096;BME280;1558;42.700;23.360;2024-02-26T10:52:19;94785.56;;;14.04;78.89
3096;BME280;1558;42.700;23.360;2024-02-26T10:54:48;94773.91;;;14.04;78.63
3096;BME280;1558;42.700;23.360;2024-02-26T10:57:18;94780.97;;;14.08;78.02
3096;BME280;1558;42.700;23.360;2024-02-26T10:59:48;94786.84;;;14.14;78.84
3096;BME280;1558;42.700;23.360;2024-02-26T11:02:17;94760.78;;;14.06;78.84
3096;BME280;1558;42.700;23.360;2024-02-26T11:04:46;94769.91;;;14.20;78.55
3096;BME280;1558;42.700;23.360;2024-02-26T11:07:18;94778.50;;;14.26;76.67
3096;BME280;1558;42.700;23.360;2024-02-26T11:09:48;94766.00;;;14.21;78.06
3096;BME280;1558;42.700;23.360;2024-02-26T11:12:19;94769.28;;;14.31;75.92
3096;BME280;1558;42.700;23.360;2024-02-26T11:14:49;94782.63;;;14.43;75.00
3096;BME280;1558;42.700;23.360;2024-02-26T11:17:22;94772.63;;;14.24;73.06
3096;BME280;1558;42.700;23.360;2024-02-26T11:19:53;94772.88;;;14.12;72.93
3096;BME280;1558;42.700;23.360;2024-02-26T11:22:26;94762.91;;;14.19;72.75
3096;BME280;1558;42.700;23.360;2024-02-26T11:24:56;94778.44;;;14.22;72.33
3096;BME280;1558;42.700;23.360;2024-02-26T11:27:30;94765.91;;;14.14;73.33
3096;BME280;1558;42.700;23.360;2024-02-26T11:30:02;94758.97;;;14.17;73.59
3096;BME280;1558;42.700;23.360;2024-02-26T11:32:32;94759.50;;;14.26;74.04
3096;BME280;1558;42.700;23.360;2024-02-26T11:35:04;94726.13;;;14.22;73.11
3096;BME280;1558;42.700;23.360;2024-02-26T11:37:35;94763.28;;;14.48;72.67
3096;BME280;1558;42.700;23.360;2024-02-26T11:40:10;94757.84;;;14.44;73.18
3096;BME280;1558;42.700;23.360;2024-02-26T11:42:43;94738.28;;;14.61;72.90
3096;BME280;1558;42.700;23.360;2024-02-26T11:48:15;94738.69;;;14.63;72.43
3096;BME280;1558;42.700;23.360;2024-02-26T11:50:47;94748.03;;;14.69;72.25
3096;BME280;1558;42.700;23.360;2024-02-26T11:53:25;94722.16;;;14.42;72.08
3096;BME280;1558;42.700;23.360;2024-02-26T11:56:22;94736.63;;;14.23;73.69
3096;BME280;1558;42.700;23.360;2024-02-26T11:59:00;94743.25;;;14.26;74.13
3096;BME280;1558;42.700;23.360;2024-02-26T12:01:36;94741.84;;;14.36;74.40
3096;BME280;1558;42.700;23.360;2024-02-26T12:04:04;94741.41;;;14.34;73.73
3096;BME280;1558;42.700;23.360;2024-02-26T12:06:41;94747.34;;;14.43;74.26
3096;BME280;1558;42.700;23.360;2024-02-26T12:09:11;94751.75;;;14.54;73.09
3096;BME280;1558;42.700;23.360;2024-02-26T12:11:42;94749.16;;;14.65;72.22
3096;BME280;1558;42.700;23.360;2024-02-26T12:14:10;94744.22;;;14.74;72.12
3096;BME280;1558;42.700;23.360;2024-02-26T12:16:39;94745.91;;;14.85;71.51
3096;BME280;1558;42.700;23.360;2024-02-26T12:19:09;94698.69;;;14.57;70.78
3096;BME280;1558;42.700;23.360;2024-02-26T12:21:38;94740.91;;;14.91;69.72
3096;BME280;1558;42.700;23.360;2024-02-26T12:24:14;94739.78;;;14.92;69.56
3096;BME280;1558;42.700;23.360;2024-02-26T12:26:43;94742.44;;;15.29;70.00
3096;BME280;1558;42.700;23.360;2024-02-26T12:29:12;94742.72;;;15.53;68.70
3096;BME280;1558;42.700;23.360;2024-02-26T12:31:40;94737.94;;;15.43;64.23
3096;BME280;1558;42.700;23.360;2024-02-26T12:34:12;94738.00;;;15.10;63.58
3096;BME280;1558;42.700;23.360;2024-02-26T12:36:41;94743.84;;;15.12;63.48
3096;BME280;1558;42.700;23.360;2024-02-26T12:39:09;94741.69;;;15.28;64.44
3096;BME280;1558;42.700;23.360;2024-02-26T12:41:39;94747.94;;;15.36;62.92
3096;BME280;1558;42.700;23.360;2024-02-26T12:44:08;94748.53;;;15.12;62.88
3096;BME280;1558;42.700;23.360;2024-02-26T12:46:36;94748.59;;;15.22;62.93
3096;BME280;1558;42.700;23.360;2024-02-26T12:49:04;94743.97;;;15.23;61.79
3096;BME280;1558;42.700;23.360;2024-02-26T12:51:33;94707.53;;;14.90;62.03
3096;BME280;1558;42.700;23.360;2024-02-26T12:54:02;94733.16;;;15.33;61.38
3096;BME280;1558;42.700;23.360;2024-02-26T12:56:30;94752.38;;;15.47;60.35
3096;BME280;1558;42.700;23.360;2024-02-26T12:59:01;94736.59;;;15.64;60.04
3096;BME280;1558;42.700;23.360;2024-02-26T13:01:30;94729.75;;;15.87;59.39
3096;BME280;1558;42.700;23.360;2024-02-26T13:03:59;94718.44;;;15.82;59.58
3096;BME280;1558;42.700;23.360;2024-02-26T13:06:33;94730.69;;;15.58;59.97
3096;BME280;1558;42.700;23.360;2024-02-26T13:09:02;94715.63;;;15.68;60.59
3096;BME280;1558;42.700;23.360;2024-02-26T13:11:31;94724.28;;;15.80;60.33
3096;BME280;1558;42.700;23.360;2024-02-26T13:14:01;94725.69;;;15.64;59.81
3096;BME280;1558;42.700;23.360;2024-02-26T13:16:33;94727.25;;;15.65;60.00
3096;BME280;1558;42.700;23.360;2024-02-26T13:19:08;94722.78;;;15.90;59.97
3096;BME280;1558;42.700;23.360;2024-02-26T13:21:37;94740.94;;;15.79;58.52
3096;BME280;1558;42.700;23.360;2024-02-26T13:24:06;94726.00;;;15.51;59.24